createdAt,value
2018-09-24T00:02:51.616Z,85.09
2018-09-24T00:05:55.187Z,85.45
2018-09-24T00:08:58.725Z,85.80
2018-09-24T00:12:02.265Z,84.91
2018-09-24T00:15:05.792Z,84.81
2018-09-24T00:18:09.271Z,85.53
2018-09-24T00:21:12.910Z,85.27
2018-09-24T00:24:16.365Z,85.45
2018-09-24T00:27:19.902Z,85.59
2018-09-24T00:30:23.400Z,85.39
2018-09-24T00:33:27.071Z,85.40
2018-09-24T00:36:30.625Z,84.67
2018-09-24T00:39:34.140Z,85.33
2018-09-24T00:42:37.657Z,85.93
2018-09-24T00:45:41.165Z,85.92
2018-09-24T00:48:44.751Z,85.29
2018-09-24T00:51:48.225Z,84.70
2018-09-24T00:54:51.696Z,85.05
2018-09-24T00:57:55.237Z,84.47
2018-09-24T01:00:58.812Z,84.74
2018-09-24T01:04:02.360Z,85.20
2018-09-24T01:07:05.957Z,85.06
2018-09-24T01:10:09.600Z,85.05
2018-09-24T01:13:13.151Z,84.15
2018-09-24T01:16:16.668Z,84.17
2018-09-24T01:19:20.273Z,84.17
2018-09-24T01:22:23.761Z,83.86
2018-09-24T01:25:27.232Z,83.36
2018-09-24T01:28:30.957Z,83.80
2018-09-24T01:31:34.447Z,84.56
2018-09-24T01:34:37.955Z,85.07
2018-09-24T01:37:41.455Z,84.92
2018-09-24T01:40:44.990Z,84.06
2018-09-24T01:43:48.471Z,86.07
2018-09-24T01:46:52.077Z,88.59
2018-09-24T01:49:55.620Z,88.82
2018-09-24T01:53:05.153Z,88.66
2018-09-24T01:56:08.675Z,88.30
2018-09-24T01:59:12.133Z,88.73
2018-09-24T02:02:16.232Z,88.51
2018-09-24T02:05:19.771Z,88.09
2018-09-24T02:08:23.246Z,88.23
2018-09-24T02:11:26.841Z,87.62
2018-09-24T02:14:30.328Z,87.48
2018-09-24T02:17:33.945Z,87.25
2018-09-24T02:20:44.878Z,86.98
2018-09-24T02:23:48.373Z,85.58
2018-09-24T02:26:51.963Z,85.91
2018-09-24T02:29:55.760Z,85.85
2018-09-24T02:32:59.311Z,85.61
2018-09-24T02:36:02.881Z,84.17
2018-09-24T02:39:08.102Z,84.20
2018-09-24T02:42:11.598Z,83.04
2018-09-24T02:45:15.034Z,82.71
2018-09-24T02:48:18.587Z,83.02
2018-09-24T02:51:22.199Z,82.42
2018-09-24T02:54:25.775Z,83.86
2018-09-24T02:57:29.301Z,83.94
2018-09-24T03:00:32.869Z,83.95
2018-09-24T03:03:36.402Z,84.00
2018-09-24T03:06:40.068Z,83.39
2018-09-24T03:09:43.768Z,83.12
2018-09-24T03:12:49.573Z,82.73
2018-09-24T03:15:53.075Z,81.25
2018-09-24T03:18:58.793Z,82.31
2018-09-24T03:22:02.699Z,83.24
2018-09-24T03:25:06.247Z,83.79
2018-09-24T03:28:09.767Z,83.70
2018-09-24T03:31:13.287Z,83.79
2018-09-24T03:34:17.941Z,83.15
2018-09-24T03:37:21.460Z,83.66
2018-09-24T03:40:25.223Z,84.71
2018-09-24T03:43:28.741Z,84.71
2018-09-24T03:46:32.412Z,83.41
2018-09-24T03:49:36.046Z,81.72
2018-09-24T03:52:39.682Z,80.77
2018-09-24T03:55:43.212Z,80.30
2018-09-24T03:58:46.764Z,79.30
2018-09-24T04:01:50.309Z,79.40
2018-09-24T04:04:59.103Z,79.75
2018-09-24T04:08:07.845Z,79.54
2018-09-24T04:11:16.693Z,80.82
2018-09-24T04:14:25.416Z,81.57
2018-09-24T04:17:34.127Z,80.33
2018-09-24T04:20:42.802Z,80.99
2018-09-24T04:23:51.658Z,80.43
2018-09-24T04:27:00.498Z,80.10
2018-09-24T04:30:09.273Z,80.10
2018-09-24T04:33:18.064Z,79.25
2018-09-24T04:36:26.708Z,80.47
2018-09-24T04:39:35.661Z,80.42
2018-09-24T04:42:44.364Z,80.93
2018-09-24T04:45:53.204Z,81.76
2018-09-24T04:49:02.082Z,82.95
2018-09-24T04:52:10.786Z,82.94
2018-09-24T04:55:19.831Z,81.40
2018-09-24T04:58:28.746Z,81.67
2018-09-24T05:01:38.558Z,81.77
2018-09-24T05:04:47.410Z,82.50
2018-09-24T05:07:56.204Z,82.18
2018-09-24T05:11:05.104Z,81.58
2018-09-24T05:14:13.989Z,81.67
2018-09-24T05:17:22.885Z,82.32
2018-09-24T05:20:31.718Z,82.19
2018-09-24T05:23:40.634Z,83.05
2018-09-24T05:26:50.178Z,84.89
2018-09-24T05:29:58.950Z,85.11
2018-09-24T05:33:07.679Z,83.50
2018-09-24T05:36:16.335Z,82.82
2018-09-24T05:39:25.055Z,80.14
2018-09-24T05:42:33.914Z,81.15
2018-09-24T05:45:42.783Z,82.50
2018-09-24T05:48:51.610Z,82.83
2018-09-24T05:52:00.715Z,84.65
2018-09-24T05:55:09.679Z,83.50
2018-09-24T05:58:18.449Z,81.80
2018-09-24T06:01:27.059Z,80.96
2018-09-24T06:04:35.808Z,79.71
2018-09-24T06:07:44.470Z,78.89
2018-09-24T06:10:53.224Z,79.29
2018-09-24T06:14:02.069Z,78.67
2018-09-24T06:17:10.766Z,79.94
2018-09-24T06:20:19.498Z,79.64
2018-09-24T06:23:28.194Z,79.54
2018-09-24T06:26:37.011Z,75.36
2018-09-24T06:29:45.597Z,75.34
2018-09-24T06:32:54.361Z,77.19
2018-09-24T06:36:03.096Z,75.75
2018-09-24T06:39:13.619Z,74.83
2018-09-24T06:42:22.420Z,76.10
2018-09-24T06:45:31.143Z,75.74
2018-09-24T06:48:39.786Z,74.32
2018-09-24T06:51:48.568Z,74.58
2018-09-24T06:54:57.369Z,74.65
2018-09-24T06:58:06.260Z,76.12
2018-09-24T07:01:15.140Z,75.39
2018-09-24T07:04:23.975Z,75.06
2018-09-24T07:07:32.750Z,75.34
2018-09-24T07:10:41.484Z,77.36
2018-09-24T07:13:50.240Z,77.09
2018-09-24T07:16:58.913Z,75.44
2018-09-24T07:20:07.709Z,76.21
2018-09-24T07:23:16.520Z,76.13
2018-09-24T07:26:25.253Z,76.75
2018-09-24T07:29:33.996Z,77.07
2018-09-24T07:32:42.690Z,76.69
2018-09-24T07:35:51.491Z,77.00
2018-09-24T07:39:00.221Z,76.10
2018-09-24T07:42:09.062Z,73.83
2018-09-24T07:45:17.852Z,73.59
2018-09-24T07:48:26.565Z,72.72
2018-09-24T07:51:35.335Z,71.38
2018-09-24T07:54:44.037Z,69.86
2018-09-24T07:57:52.786Z,70.24
2018-09-24T08:01:01.600Z,69.95
2018-09-24T08:04:10.382Z,70.64
2018-09-24T08:07:19.185Z,69.38
2018-09-24T08:10:28.035Z,69.77
2018-09-24T08:13:37.541Z,69.95
2018-09-24T08:16:46.388Z,70.41
2018-09-24T08:19:55.142Z,67.83
2018-09-24T08:23:03.948Z,68.10
2018-09-24T08:26:12.597Z,68.19
2018-09-24T08:29:21.483Z,68.66
2018-09-24T08:32:30.221Z,69.63
2018-09-24T08:35:38.983Z,68.63
2018-09-24T08:38:47.580Z,70.24
2018-09-24T08:41:56.462Z,68.66
2018-09-24T08:45:05.476Z,67.54
2018-09-24T08:48:14.335Z,67.18
2018-09-24T08:51:23.180Z,67.96
2018-09-24T08:54:31.962Z,67.94
2018-09-24T08:57:40.773Z,65.61
2018-09-24T09:00:49.482Z,67.17
2018-09-24T09:03:58.156Z,67.04
2018-09-24T09:07:09.073Z,66.88
2018-09-24T09:10:17.912Z,67.31
2018-09-24T09:13:26.682Z,66.97
2018-09-24T09:16:35.553Z,67.57
2018-09-24T09:19:44.336Z,67.62
2018-09-24T09:22:53.187Z,67.96
2018-09-24T09:26:02.181Z,67.22
2018-09-24T09:29:11.100Z,66.73
2018-09-24T09:32:20.011Z,67.22
2018-09-24T09:35:28.873Z,67.15
2018-09-24T09:38:37.721Z,66.31
2018-09-24T09:41:46.683Z,66.63
2018-09-24T09:44:55.656Z,66.31
2018-09-24T09:48:04.398Z,65.67
2018-09-24T09:51:13.084Z,66.09
2018-09-24T09:54:21.987Z,67.47
2018-09-24T09:57:30.820Z,67.14
2018-09-24T10:00:39.633Z,66.41
2018-09-24T10:03:48.336Z,65.93
2018-09-24T10:06:57.107Z,65.34
2018-09-24T10:10:05.826Z,64.26
2018-09-24T10:13:14.564Z,63.71
2018-09-24T10:16:23.266Z,65.03
2018-09-24T10:19:32.062Z,64.38
2018-09-24T10:22:40.881Z,64.35
2018-09-24T10:25:49.582Z,62.04
2018-09-24T10:28:58.577Z,63.49
2018-09-24T10:32:07.241Z,64.61
2018-09-24T10:35:16.004Z,63.87
2018-09-24T10:38:24.790Z,63.87
2018-09-24T10:41:33.633Z,62.58
2018-09-24T10:44:42.328Z,64.55
2018-09-24T10:47:51.093Z,64.04
2018-09-24T10:50:59.882Z,63.87
2018-09-24T10:54:08.983Z,65.75
2018-09-24T10:57:17.797Z,65.93
2018-09-24T11:00:26.573Z,65.09
2018-09-24T11:03:35.292Z,63.18
2018-09-24T11:06:44.107Z,63.78
2018-09-24T11:09:52.803Z,64.24
2018-09-24T11:13:01.551Z,63.37
2018-09-24T11:16:10.902Z,62.94
2018-09-24T11:19:19.597Z,60.94
2018-09-24T11:22:28.630Z,60.85
2018-09-24T11:25:37.382Z,56.60
2018-09-24T11:28:46.132Z,58.05
2018-09-24T11:31:54.886Z,59.43
2018-09-24T11:35:03.628Z,59.33
2018-09-24T11:38:12.746Z,57.88
2018-09-24T11:41:21.618Z,57.35
2018-09-24T11:44:30.502Z,58.85
2018-09-24T11:47:39.291Z,53.72
2018-09-24T11:50:48.023Z,53.19
2018-09-24T11:53:57.607Z,53.66
2018-09-24T11:57:06.533Z,53.51
2018-09-24T12:00:15.321Z,54.28
2018-09-24T12:03:24.739Z,55.76
2018-09-24T12:06:33.683Z,58.07
2018-09-24T12:09:42.583Z,59.35
2018-09-24T12:12:52.208Z,59.95
2018-09-24T12:16:02.639Z,61.87
2018-09-24T12:19:11.392Z,62.58
2018-09-24T12:22:20.239Z,62.54
2018-09-24T12:25:29.056Z,65.32
2018-09-24T12:28:38.019Z,77.21
2018-09-24T12:31:46.779Z,84.40
2018-09-24T12:34:55.569Z,85.50
2018-09-24T12:38:04.150Z,85.21
2018-09-24T12:41:12.909Z,79.93
2018-09-24T12:44:21.830Z,78.86
2018-09-24T12:47:30.638Z,73.74
2018-09-24T12:50:40.776Z,72.37
2018-09-24T12:53:49.695Z,68.41
2018-09-24T12:56:58.412Z,66.27
2018-09-24T13:00:07.208Z,63.50
2018-09-24T13:03:15.868Z,64.90
2018-09-24T13:06:24.608Z,64.57
2018-09-24T13:09:33.448Z,64.84
2018-09-24T13:12:42.273Z,64.18
2018-09-24T13:15:52.073Z,64.77
2018-09-24T13:19:00.899Z,65.22
2018-09-24T13:22:12.673Z,66.48
2018-09-24T13:25:21.488Z,64.57
2018-09-24T13:28:30.310Z,65.09
2018-09-24T13:31:39.110Z,68.15
2018-09-24T13:34:47.965Z,67.24
2018-09-24T13:37:57.157Z,69.96
2018-09-24T13:41:05.975Z,68.79
2018-09-24T13:44:16.119Z,69.63
2018-09-24T13:47:25.433Z,72.72
2018-09-24T13:50:34.238Z,77.20
2018-09-24T13:53:42.973Z,80.13
2018-09-24T13:56:51.956Z,82.34
2018-09-24T14:00:01.018Z,82.96
2018-09-24T14:03:09.745Z,83.55
2018-09-24T14:06:18.555Z,84.19
2018-09-24T14:09:27.339Z,82.78
2018-09-24T14:12:36.184Z,83.99
2018-09-24T14:15:44.879Z,80.27
2018-09-24T14:18:53.778Z,80.38
2018-09-24T14:22:02.643Z,81.49
2018-09-24T14:25:11.660Z,79.09
2018-09-24T14:28:27.507Z,78.97
2018-09-24T14:31:36.177Z,79.16
2018-09-24T14:34:44.880Z,78.03
2018-09-24T14:37:53.921Z,73.31
2018-09-24T14:41:02.805Z,74.39
2018-09-24T14:44:11.771Z,73.65
2018-09-24T14:47:20.725Z,74.84
2018-09-24T14:50:29.445Z,75.87
2018-09-24T14:53:38.551Z,75.69
2018-09-24T14:56:48.191Z,74.93
2018-09-24T14:59:57.234Z,76.88
2018-09-24T15:03:06.102Z,75.36
2018-09-24T15:06:14.899Z,75.57
2018-09-24T15:09:23.720Z,74.03
2018-09-24T15:12:34.325Z,72.85
2018-09-24T15:15:43.602Z,73.08
2018-09-24T15:18:52.350Z,69.86
2018-09-24T15:22:01.207Z,75.67
2018-09-24T15:25:10.164Z,82.45
2018-09-24T15:28:18.933Z,85.34
2018-09-24T15:31:27.695Z,86.21
2018-09-24T15:34:36.472Z,86.95
2018-09-24T15:37:45.421Z,88.01
2018-09-24T15:40:54.207Z,88.26
2018-09-24T15:44:03.182Z,87.79
2018-09-24T15:47:12.066Z,87.30
2018-09-24T15:50:20.833Z,84.61
2018-09-24T15:53:29.562Z,85.34
2018-09-24T15:56:38.285Z,85.97
2018-09-24T15:59:47.022Z,85.12
2018-09-24T16:02:55.761Z,85.04
2018-09-24T16:06:04.571Z,84.86
2018-09-24T16:09:14.442Z,83.12
2018-09-24T16:12:23.355Z,83.24
2018-09-24T16:15:32.227Z,83.18
2018-09-24T16:18:40.928Z,84.65
2018-09-24T16:21:49.817Z,84.86
2018-09-24T16:24:58.667Z,83.95
2018-09-24T16:28:07.370Z,84.31
2018-09-24T16:31:16.136Z,84.47
2018-09-24T16:34:24.841Z,85.69
2018-09-24T16:37:33.791Z,85.62
2018-09-24T16:40:42.591Z,85.21
2018-09-24T16:43:51.297Z,85.11
2018-09-24T16:47:00.166Z,84.97
2018-09-24T16:50:09.672Z,84.50
2018-09-24T16:53:18.525Z,84.01
2018-09-24T16:56:27.403Z,83.80
2018-09-24T16:59:36.375Z,85.18
2018-09-24T17:02:45.311Z,85.95
2018-09-24T17:05:54.188Z,85.49
2018-09-24T17:09:02.887Z,85.22
2018-09-24T17:12:11.951Z,85.59
2018-09-24T17:15:21.311Z,85.55
2018-09-24T17:18:30.178Z,85.30
2018-09-24T17:21:38.827Z,85.43
2018-09-24T17:24:47.741Z,85.44
2018-09-24T17:27:56.809Z,85.70
2018-09-24T17:31:05.811Z,85.95
2018-09-24T17:34:14.616Z,85.97
2018-09-24T17:37:23.492Z,85.80
2018-09-24T17:40:32.458Z,86.06
2018-09-24T17:43:41.422Z,85.48
2018-09-24T17:46:50.447Z,85.18
2018-09-24T17:49:59.224Z,85.08
2018-09-24T17:53:08.492Z,85.24
2018-09-24T17:56:17.513Z,84.98
2018-09-24T17:59:27.165Z,85.01
2018-09-24T18:02:36.108Z,85.29
2018-09-24T18:05:44.985Z,86.31
2018-09-24T18:08:53.954Z,87.53
2018-09-24T18:12:02.753Z,87.83
2018-09-24T18:15:11.523Z,88.26
2018-09-24T18:18:20.601Z,89.73
2018-09-24T18:21:29.378Z,90.30
2018-09-24T18:24:38.453Z,91.07
2018-09-24T18:27:47.603Z,91.33
2018-09-24T18:30:56.443Z,90.35
2018-09-24T18:34:05.613Z,89.46
2018-09-24T18:37:14.857Z,88.23
2018-09-24T18:40:23.762Z,87.40
2018-09-24T18:43:32.492Z,86.27
2018-09-24T18:46:41.439Z,85.49
2018-09-24T18:49:50.218Z,85.49
2018-09-24T18:52:59.002Z,83.89
2018-09-24T18:56:07.752Z,83.08
2018-09-24T18:59:16.646Z,83.47
2018-09-24T19:02:25.436Z,83.66
2018-09-24T19:05:34.247Z,84.69
2018-09-24T19:08:43.244Z,84.31
2018-09-24T19:11:52.215Z,84.04
2018-09-24T19:15:01.184Z,83.84
2018-09-24T19:18:09.964Z,83.88
2018-09-24T19:21:18.708Z,84.35
2018-09-24T19:24:27.541Z,83.69
2018-09-24T19:27:36.503Z,82.85
2018-09-24T19:30:45.480Z,82.24
2018-09-24T19:33:54.492Z,83.28
2018-09-24T19:37:03.509Z,82.36
2018-09-24T19:40:12.312Z,82.46
2018-09-24T19:43:21.294Z,81.40
2018-09-24T19:46:30.073Z,81.43
2018-09-24T19:49:38.883Z,80.82
2018-09-24T19:52:47.952Z,80.04
2018-09-24T19:55:56.719Z,78.95
2018-09-24T19:59:05.580Z,78.82
2018-09-24T20:02:14.342Z,78.77
2018-09-24T20:05:23.485Z,78.70
2018-09-24T20:08:32.358Z,78.43
2018-09-24T20:11:41.310Z,78.26
2018-09-24T20:14:50.053Z,78.12
2018-09-24T20:17:58.845Z,79.95
2018-09-24T20:21:07.615Z,80.91
2018-09-24T20:24:16.484Z,81.93
2018-09-24T20:27:25.270Z,82.57
2018-09-24T20:30:34.244Z,82.58
2018-09-24T20:33:42.954Z,82.44
2018-09-24T20:36:51.744Z,83.24
2018-09-24T20:40:00.586Z,83.22
2018-09-24T20:43:09.327Z,82.44
2018-09-24T20:46:18.162Z,82.37
2018-09-24T20:49:26.888Z,82.53
2018-09-24T20:52:35.952Z,82.96
2018-09-24T20:55:44.927Z,81.78
2018-09-24T20:58:53.909Z,81.96
2018-09-24T21:02:02.653Z,82.16
2018-09-24T21:05:11.499Z,81.91
2018-09-24T21:08:20.405Z,82.04
2018-09-24T21:11:29.249Z,81.74
2018-09-24T21:14:38.068Z,81.69
2018-09-24T21:17:46.864Z,82.15
2018-09-24T21:20:55.540Z,82.04
2018-09-24T21:24:04.319Z,82.67
2018-09-24T21:27:13.077Z,81.41
2018-09-24T21:30:21.865Z,81.41
2018-09-24T21:33:30.719Z,81.86
2018-09-24T21:36:39.517Z,81.92
2018-09-24T21:39:48.211Z,81.51
2018-09-24T21:42:57.028Z,81.61
2018-09-24T21:46:05.731Z,81.70
2018-09-24T21:49:14.433Z,81.64
2018-09-24T21:52:23.246Z,81.70
2018-09-24T21:55:31.998Z,80.94
2018-09-24T21:58:40.984Z,81.12
2018-09-24T22:01:49.685Z,80.89
2018-09-24T22:04:58.389Z,81.88
2018-09-24T22:08:07.089Z,81.89
2018-09-24T22:11:16.094Z,81.10
2018-09-24T22:14:24.951Z,80.47
2018-09-24T22:17:33.666Z,80.29
2018-09-24T22:20:42.681Z,80.15
2018-09-24T22:23:51.442Z,80.05
2018-09-24T22:27:00.417Z,80.55
2018-09-24T22:30:09.172Z,79.97
2018-09-24T22:33:17.858Z,81.39
2018-09-24T22:36:26.629Z,81.73
2018-09-24T22:39:35.419Z,82.05
2018-09-24T22:42:44.120Z,81.44
2018-09-24T22:45:52.884Z,81.25
2018-09-24T22:49:01.761Z,82.02
2018-09-24T22:52:10.628Z,82.21
2018-09-24T22:55:19.423Z,81.97
2018-09-24T22:58:28.166Z,80.89
2018-09-24T23:01:36.985Z,81.55
2018-09-24T23:04:45.814Z,82.06
2018-09-24T23:07:54.720Z,81.57
2018-09-24T23:11:03.470Z,81.88
2018-09-24T23:14:12.176Z,82.61
2018-09-24T23:17:20.989Z,81.72
2018-09-24T23:20:29.756Z,81.22
2018-09-24T23:23:38.565Z,79.95
2018-09-24T23:26:47.411Z,80.08
2018-09-24T23:29:56.257Z,81.41
2018-09-24T23:33:05.227Z,82.50
2018-09-24T23:36:14.150Z,84.14
2018-09-24T23:39:22.892Z,86.73
2018-09-24T23:42:31.520Z,87.45
2018-09-24T23:45:40.370Z,87.11
2018-09-24T23:48:49.040Z,87.46
2018-09-24T23:51:57.754Z,87.54
2018-09-24T23:55:06.632Z,86.27
2018-09-24T23:58:15.446Z,86.38
